createdAt,value
2022-10-17T00:02:48.443Z,79.40
2022-10-17T00:05:51.503Z,79.58
2022-10-17T00:08:54.031Z,79.02
2022-10-17T00:11:56.809Z,77.75
2022-10-17T00:14:59.704Z,84.77
2022-10-17T00:18:02.725Z,80.93
2022-10-17T00:21:05.489Z,83.83
2022-10-17T00:24:08.366Z,83.05
2022-10-17T00:27:10.899Z,81.70
2022-10-17T00:30:15.832Z,82.92
2022-10-17T00:33:18.326Z,80.44
2022-10-17T00:36:24.686Z,79.88
2022-10-17T00:39:27.283Z,78.47
2022-10-17T00:42:30.512Z,78.97
2022-10-17T00:45:33.486Z,78.45
2022-10-17T00:48:36.290Z,78.84
2022-10-17T00:51:44.011Z,80.68
2022-10-17T00:54:52.073Z,78.86
2022-10-17T00:57:55.597Z,78.04
2022-10-17T01:00:58.995Z,77.08
2022-10-17T01:04:01.642Z,77.08
2022-10-17T01:07:04.877Z,77.02
2022-10-17T01:10:08.806Z,78.46
2022-10-17T01:13:16.491Z,79.13
2022-10-17T01:16:26.962Z,78.57
2022-10-17T01:19:38.424Z,80.41
2022-10-17T01:22:49.344Z,79.40
2022-10-17T01:26:07.106Z,79.78
2022-10-17T01:29:09.832Z,78.61
2022-10-17T01:32:22.067Z,77.94
2022-10-17T01:35:34.144Z,77.79
2022-10-17T01:38:50.809Z,78.08
2022-10-17T01:42:01.969Z,77.78
2022-10-17T01:45:14.079Z,77.76
2022-10-17T01:48:22.380Z,78.72
2022-10-17T01:51:31.405Z,77.71
2022-10-17T01:54:42.670Z,77.78
2022-10-17T01:57:50.544Z,76.92
2022-10-17T02:00:54.951Z,76.35
2022-10-17T02:03:59.508Z,75.52
2022-10-17T02:07:10.830Z,75.55
2022-10-17T02:10:25.323Z,76.23
2022-10-17T02:13:33.676Z,76.18
2022-10-17T02:17:01.240Z,75.58
2022-10-17T02:20:16.120Z,75.57
2022-10-17T02:23:28.155Z,76.10
2022-10-17T02:26:40.386Z,76.38
2022-10-17T02:30:12.567Z,77.17
2022-10-17T02:33:30.953Z,77.14
2022-10-17T02:36:39.098Z,76.50
2022-10-17T02:39:44.148Z,76.92
2022-10-17T02:42:48.675Z,76.70
2022-10-17T02:45:52.712Z,76.55
2022-10-17T02:49:01.742Z,77.10
2022-10-17T02:52:12.514Z,77.51
2022-10-17T02:55:23.235Z,76.96
2022-10-17T02:58:32.933Z,77.57
2022-10-17T03:01:37.005Z,77.95
2022-10-17T03:04:43.517Z,77.37
2022-10-17T03:07:46.225Z,77.88
2022-10-17T03:10:49.230Z,77.36
2022-10-17T03:13:53.997Z,77.55
2022-10-17T03:16:57.257Z,77.59
2022-10-17T03:20:01.014Z,78.01
2022-10-17T03:23:05.596Z,77.03
2022-10-17T03:26:10.293Z,77.50
2022-10-17T03:29:14.133Z,77.34
2022-10-17T03:32:17.600Z,77.45
2022-10-17T03:35:20.773Z,77.85
2022-10-17T03:38:24.099Z,78.11
2022-10-17T03:41:27.840Z,77.93
2022-10-17T03:44:30.575Z,78.56
2022-10-17T03:47:34.473Z,78.54
2022-10-17T03:50:37.756Z,78.51
2022-10-17T03:53:40.731Z,78.51
2022-10-17T03:56:44.021Z,79.04
2022-10-17T03:59:47.566Z,79.44
2022-10-17T04:02:50.365Z,79.20
2022-10-17T04:05:53.740Z,79.38
2022-10-17T04:08:56.599Z,79.71
2022-10-17T04:12:00.300Z,79.40
2022-10-17T04:15:03.380Z,79.83
2022-10-17T04:18:06.385Z,79.96
2022-10-17T04:21:11.196Z,80.24
2022-10-17T04:24:14.380Z,79.82
2022-10-17T04:27:17.584Z,79.65
2022-10-17T04:30:22.841Z,80.08
2022-10-17T04:33:26.188Z,79.70
2022-10-17T04:36:29.175Z,79.60
2022-10-17T04:39:31.884Z,79.98
2022-10-17T04:42:34.842Z,80.60
2022-10-17T04:45:37.765Z,80.99
2022-10-17T04:48:42.004Z,80.78
2022-10-17T04:51:45.595Z,81.07
2022-10-17T04:54:48.827Z,81.55
2022-10-17T04:57:51.520Z,81.79
2022-10-17T05:00:56.082Z,81.63
2022-10-17T05:03:59.134Z,81.90
2022-10-17T05:07:03.571Z,82.82
2022-10-17T05:10:07.743Z,82.55
2022-10-17T05:13:11.958Z,81.83
2022-10-17T05:16:15.939Z,82.34
2022-10-17T05:19:18.910Z,82.23
2022-10-17T05:22:21.852Z,81.93
2022-10-17T05:25:24.834Z,80.55
2022-10-17T05:28:27.776Z,78.29
2022-10-17T05:31:32.721Z,76.04
2022-10-17T05:34:35.247Z,73.32
2022-10-17T05:37:38.283Z,71.82
2022-10-17T05:40:41.285Z,70.14
2022-10-17T05:43:45.446Z,69.44
2022-10-17T05:46:49.858Z,68.31
2022-10-17T05:49:52.954Z,67.14
2022-10-17T05:52:55.943Z,64.97
2022-10-17T05:56:01.198Z,65.89
2022-10-17T05:59:05.532Z,65.58
2022-10-17T06:02:12.322Z,64.50
2022-10-17T06:05:15.691Z,63.75
2022-10-17T06:08:18.888Z,62.05
2022-10-17T06:11:21.841Z,61.00
2022-10-17T06:14:24.382Z,59.80
2022-10-17T06:17:28.227Z,59.94
2022-10-17T06:20:30.848Z,59.78
2022-10-17T06:23:34.406Z,58.41
2022-10-17T06:26:38.086Z,58.56
2022-10-17T06:29:42.050Z,55.54
2022-10-17T06:32:44.697Z,55.40
2022-10-17T06:35:52.943Z,55.66
2022-10-17T06:38:55.846Z,55.59
2022-10-17T06:42:01.213Z,53.82
2022-10-17T06:45:11.260Z,54.79
2022-10-17T06:48:14.876Z,54.62
2022-10-17T06:51:17.573Z,53.88
2022-10-17T06:54:20.946Z,50.49
2022-10-17T06:57:23.864Z,48.88
2022-10-17T07:00:27.084Z,50.19
2022-10-17T07:03:30.371Z,50.11
2022-10-17T07:06:34.156Z,47.77
2022-10-17T07:09:37.525Z,47.17
2022-10-17T07:12:40.471Z,48.03
2022-10-17T07:15:43.731Z,47.82
2022-10-17T07:18:49.528Z,45.17
2022-10-17T07:21:52.744Z,43.33
2022-10-17T07:24:55.885Z,45.61
2022-10-17T07:27:59.983Z,44.67
2022-10-17T07:31:08.752Z,47.75
2022-10-17T07:34:12.063Z,44.73
2022-10-17T07:37:15.057Z,44.17
2022-10-17T07:40:21.302Z,43.33
2022-10-17T07:43:25.797Z,43.05
2022-10-17T07:46:29.823Z,42.71
2022-10-17T07:49:32.878Z,42.47
2022-10-17T07:52:35.747Z,41.24
2022-10-17T07:55:39.560Z,39.76
2022-10-17T07:58:42.895Z,41.56
2022-10-17T08:01:45.859Z,43.17
2022-10-17T08:04:48.701Z,42.62
2022-10-17T08:07:51.296Z,41.07
2022-10-17T08:10:55.561Z,39.93
2022-10-17T08:13:58.472Z,40.05
2022-10-17T08:17:01.520Z,40.45
2022-10-17T08:20:05.712Z,40.95
2022-10-17T08:23:08.720Z,40.63
2022-10-17T08:26:13.531Z,40.40
2022-10-17T08:29:17.142Z,38.26
2022-10-17T08:32:25.803Z,39.58
2022-10-17T08:35:29.298Z,39.80
2022-10-17T08:38:35.330Z,39.60
2022-10-17T08:41:54.141Z,38.76
2022-10-17T08:45:02.958Z,39.01
2022-10-17T08:48:12.681Z,36.59
2022-10-17T08:51:30.284Z,37.18
2022-10-17T08:54:40.581Z,33.86
2022-10-17T08:57:43.836Z,36.85
2022-10-17T09:01:17.793Z,36.20
2022-10-17T09:04:51.643Z,38.10
2022-10-17T09:08:16.061Z,37.57
2022-10-17T09:11:27.509Z,34.69
2022-10-17T09:14:45.638Z,33.56
2022-10-17T09:17:58.208Z,31.68
2022-10-17T09:21:22.721Z,31.72
2022-10-17T09:24:36.501Z,31.79
2022-10-17T09:28:21.425Z,33.14
2022-10-17T09:31:29.305Z,32.38
2022-10-17T09:34:34.741Z,32.28
2022-10-17T09:37:38.114Z,32.86
2022-10-17T09:40:41.310Z,37.48
2022-10-17T09:43:43.944Z,34.33
2022-10-17T09:47:02.925Z,32.29
2022-10-17T09:50:15.013Z,32.88
2022-10-17T09:53:30.931Z,29.99
2022-10-17T09:56:57.988Z,32.44
2022-10-17T10:00:04.903Z,30.88
2022-10-17T10:03:21.926Z,33.04
2022-10-17T10:06:24.731Z,33.72
2022-10-17T10:09:30.820Z,30.82
2022-10-17T10:12:37.837Z,31.31
2022-10-17T10:15:41.414Z,33.09
2022-10-17T10:18:47.432Z,31.76
2022-10-17T10:22:01.990Z,32.91
2022-10-17T10:25:14.766Z,31.72
2022-10-17T10:28:17.786Z,30.73
2022-10-17T10:31:28.567Z,31.61
2022-10-17T10:34:32.558Z,31.64
2022-10-17T10:37:44.702Z,32.86
2022-10-17T10:40:54.539Z,32.53
2022-10-17T10:43:57.660Z,30.99
2022-10-17T10:47:22.674Z,30.52
2022-10-17T10:51:09.502Z,27.17
2022-10-17T10:54:55.476Z,28.59
2022-10-17T10:58:03.953Z,29.94
2022-10-17T11:01:16.793Z,31.69
2022-10-17T11:04:23.637Z,30.66
2022-10-17T11:07:46.731Z,31.46
2022-10-17T11:11:08.310Z,31.89
2022-10-17T11:14:25.016Z,33.58
2022-10-17T11:17:46.090Z,35.06
2022-10-17T11:21:04.458Z,34.81
2022-10-17T11:24:20.570Z,34.33
2022-10-17T11:27:24.853Z,31.79
2022-10-17T11:30:46.783Z,34.02
2022-10-17T11:34:04.554Z,32.70
2022-10-17T11:37:16.426Z,31.01
2022-10-17T11:40:25.574Z,30.39
2022-10-17T11:44:01.182Z,34.02
2022-10-17T11:47:18.652Z,34.59
2022-10-17T11:54:24.697Z,33.01
2022-10-17T11:57:41.148Z,31.04
2022-10-17T12:00:57.919Z,31.68
2022-10-17T12:04:30.730Z,32.35
2022-10-17T12:07:49.383Z,32.08
2022-10-17T12:11:01.135Z,32.39
2022-10-17T12:14:29.944Z,32.62
2022-10-17T12:17:39.344Z,34.20
2022-10-17T12:20:43.117Z,35.12
2022-10-17T12:23:56.042Z,36.95
2022-10-17T12:26:58.768Z,36.64
2022-10-17T12:30:16.766Z,37.14
2022-10-17T12:33:22.957Z,36.25
2022-10-17T12:36:25.808Z,36.96
2022-10-17T12:39:28.910Z,37.55
2022-10-17T12:42:33.558Z,36.68
2022-10-17T12:45:47.696Z,37.54
2022-10-17T12:49:04.601Z,36.77
2022-10-17T12:52:17.640Z,37.08
2022-10-17T12:55:24.643Z,36.97
2022-10-17T12:58:27.330Z,36.73
2022-10-17T13:01:33.217Z,36.25
2022-10-17T13:04:36.856Z,36.10
2022-10-17T13:07:42.545Z,35.87
2022-10-17T13:10:51.629Z,36.21
2022-10-17T13:13:59.231Z,36.51
2022-10-17T13:17:04.437Z,37.01
2022-10-17T13:20:28.914Z,36.75
2022-10-17T13:23:36.844Z,36.76
2022-10-17T13:26:45.666Z,37.32
2022-10-17T13:29:48.149Z,36.90
2022-10-17T13:32:51.197Z,37.06
2022-10-17T13:36:00.310Z,37.26
2022-10-17T13:39:12.468Z,37.01
2022-10-17T13:42:32.200Z,36.62
2022-10-17T13:45:38.318Z,36.78
2022-10-17T13:48:41.801Z,36.75
2022-10-17T13:51:46.992Z,37.46
2022-10-17T13:54:52.307Z,37.64
2022-10-17T13:57:55.178Z,37.52
2022-10-17T14:00:58.221Z,38.07
2022-10-17T14:04:19.464Z,37.88
2022-10-17T14:08:05.540Z,38.14
2022-10-17T14:11:02.828Z,38.37
2022-10-17T14:14:20.760Z,38.71
2022-10-17T14:17:29.374Z,38.87
2022-10-17T14:21:08.140Z,38.95
2022-10-17T14:24:24.655Z,39.29
2022-10-17T14:27:27.662Z,38.74
2022-10-17T14:30:56.856Z,38.77
2022-10-17T14:34:03.302Z,39.44
2022-10-17T14:37:14.853Z,39.12
2022-10-17T14:40:25.398Z,39.63
2022-10-17T14:43:30.732Z,39.81
2022-10-17T14:46:36.729Z,39.38
2022-10-17T14:49:41.059Z,38.93
2022-10-17T14:53:02.563Z,40.04
2022-10-17T14:56:23.543Z,40.61
2022-10-17T14:59:52.266Z,40.66
2022-10-17T15:02:51.430Z,41.05
2022-10-17T15:05:56.002Z,41.40
2022-10-17T15:08:59.675Z,40.69
2022-10-17T15:12:07.193Z,40.99
2022-10-17T15:15:10.395Z,42.07
2022-10-17T15:18:14.722Z,42.12
2022-10-17T15:21:26.683Z,42.56
2022-10-17T15:24:40.148Z,43.02
2022-10-17T15:27:43.126Z,43.34
2022-10-17T15:30:46.050Z,43.61
2022-10-17T15:33:49.775Z,43.42
2022-10-17T15:36:54.043Z,44.33
2022-10-17T15:39:56.871Z,44.25
2022-10-17T15:43:02.790Z,44.57
2022-10-17T15:46:12.130Z,45.60
2022-10-17T15:49:18.259Z,46.00
2022-10-17T15:52:22.259Z,46.43
2022-10-17T15:55:25.315Z,47.10
2022-10-17T15:58:35.701Z,47.51
2022-10-17T16:01:39.687Z,47.70
2022-10-17T16:04:43.228Z,47.91
2022-10-17T16:07:46.822Z,48.96
2022-10-17T16:10:50.440Z,49.13
2022-10-17T16:13:55.861Z,48.74
2022-10-17T16:17:00.658Z,49.91
2022-10-17T16:20:03.483Z,50.68
2022-10-17T16:23:08.443Z,50.13
2022-10-17T16:26:14.074Z,51.33
2022-10-17T16:29:17.131Z,51.04
2022-10-17T16:32:20.349Z,51.62
2022-10-17T16:35:25.929Z,51.50
2022-10-17T16:38:28.794Z,51.93
2022-10-17T16:41:35.962Z,51.28
2022-10-17T16:44:41.800Z,51.72
2022-10-17T16:47:45.042Z,52.05
2022-10-17T16:50:47.871Z,52.79
2022-10-17T16:53:55.473Z,52.85
2022-10-17T16:56:58.234Z,53.24
2022-10-17T17:00:01.367Z,53.34
2022-10-17T17:03:04.164Z,53.68
2022-10-17T17:06:09.006Z,54.21
2022-10-17T17:09:11.523Z,54.43
2022-10-17T17:12:14.341Z,54.47
2022-10-17T17:15:17.088Z,54.62
2022-10-17T17:18:27.743Z,55.08
2022-10-17T17:21:31.732Z,55.30
2022-10-17T17:24:34.874Z,56.12
2022-10-17T17:27:48.922Z,56.05
2022-10-17T17:30:56.952Z,56.32
2022-10-17T17:34:04.809Z,56.13
2022-10-17T17:37:09.478Z,56.72
2022-10-17T17:40:14.525Z,57.11
2022-10-17T17:43:17.603Z,57.23
2022-10-17T17:46:22.428Z,57.60
2022-10-17T17:49:25.406Z,57.91
2022-10-17T17:52:29.793Z,57.82
2022-10-17T17:55:33.590Z,58.30
2022-10-17T17:58:38.370Z,58.82
2022-10-17T18:01:41.715Z,58.92
2022-10-17T18:04:44.630Z,59.62
2022-10-17T18:07:47.193Z,60.18
2022-10-17T18:10:54.542Z,60.63
2022-10-17T18:14:00.101Z,60.40
2022-10-17T18:17:06.807Z,60.76
2022-10-17T18:20:10.276Z,60.83
2022-10-17T18:23:14.303Z,61.21
2022-10-17T18:26:17.065Z,61.06
2022-10-17T18:29:20.616Z,61.44
2022-10-17T18:32:23.226Z,61.53
2022-10-17T18:35:26.436Z,61.98
2022-10-17T18:38:29.484Z,62.29
2022-10-17T18:41:33.705Z,61.49
2022-10-17T18:44:36.531Z,61.37
2022-10-17T18:47:44.492Z,61.71
2022-10-17T18:50:47.301Z,62.20
2022-10-17T18:53:52.989Z,62.12
2022-10-17T18:56:56.758Z,62.18
2022-10-17T18:59:59.793Z,62.41
2022-10-17T19:03:04.982Z,62.21
2022-10-17T19:06:09.750Z,62.35
2022-10-17T19:09:14.201Z,62.06
2022-10-17T19:12:19.773Z,62.54
2022-10-17T19:15:25.173Z,63.10
2022-10-17T19:18:29.232Z,62.90
2022-10-17T19:21:32.545Z,63.15
2022-10-17T19:24:35.731Z,62.91
2022-10-17T19:27:40.955Z,63.01
2022-10-17T19:30:44.121Z,62.84
2022-10-17T19:33:48.005Z,62.87
2022-10-17T19:36:51.711Z,62.82
2022-10-17T19:39:54.453Z,63.01
2022-10-17T19:42:58.168Z,62.81
2022-10-17T19:46:03.523Z,62.55
2022-10-17T19:49:07.326Z,62.42
2022-10-17T19:52:09.795Z,63.19
2022-10-17T19:55:12.630Z,63.02
2022-10-17T19:58:15.375Z,63.04
2022-10-17T20:01:21.837Z,63.32
2022-10-17T20:04:24.882Z,63.29
2022-10-17T20:07:27.432Z,63.65
2022-10-17T20:10:34.153Z,63.75
2022-10-17T20:13:37.884Z,63.57
2022-10-17T20:16:41.542Z,63.44
2022-10-17T20:19:44.476Z,64.43
2022-10-17T20:22:47.575Z,64.69
2022-10-17T20:26:06.767Z,64.17
2022-10-17T20:29:19.789Z,64.67
2022-10-17T20:32:22.281Z,64.95
2022-10-17T20:35:25.056Z,64.96
2022-10-17T20:38:27.603Z,65.08
2022-10-17T20:41:30.383Z,64.92
2022-10-17T20:44:33.028Z,65.44
2022-10-17T20:47:45.974Z,65.13
2022-10-17T20:50:51.927Z,65.12
2022-10-17T20:53:54.820Z,65.43
2022-10-17T20:56:59.888Z,66.08
2022-10-17T21:00:08.325Z,66.25
2022-10-17T21:03:11.817Z,66.47
2022-10-17T21:06:16.723Z,66.12
2022-10-17T21:09:20.486Z,66.09
2022-10-17T21:12:36.624Z,67.16
2022-10-17T21:15:45.871Z,66.62
2022-10-17T21:18:51.846Z,67.00
2022-10-17T21:21:54.585Z,67.20
2022-10-17T21:24:57.619Z,67.28
2022-10-17T21:28:00.114Z,67.82
2022-10-17T21:31:14.428Z,67.64
2022-10-17T21:34:24.632Z,67.31
2022-10-17T21:37:30.059Z,67.53
2022-10-17T21:40:32.806Z,67.16
2022-10-17T21:43:36.885Z,67.33
2022-10-17T21:46:39.574Z,67.50
2022-10-17T21:49:42.736Z,66.94
2022-10-17T21:52:45.453Z,67.43
2022-10-17T21:55:48.178Z,67.17
2022-10-17T21:58:51.661Z,67.77
2022-10-17T22:01:54.580Z,68.01
2022-10-17T22:04:57.522Z,67.77
2022-10-17T22:08:00.716Z,68.32
2022-10-17T22:11:09.095Z,69.78
2022-10-17T22:14:14.136Z,69.48
2022-10-17T22:17:17.193Z,69.36
2022-10-17T22:20:20.428Z,70.53
2022-10-17T22:23:23.621Z,69.66
2022-10-17T22:26:28.156Z,70.48
2022-10-17T22:29:31.020Z,70.97
2022-10-17T22:32:34.124Z,71.75
2022-10-17T22:35:36.975Z,71.86
2022-10-17T22:38:39.430Z,73.18
2022-10-17T22:41:43.373Z,75.18
2022-10-17T22:44:46.684Z,74.73
2022-10-17T22:47:49.655Z,73.35
2022-10-17T22:50:54.143Z,75.26
2022-10-17T22:53:56.985Z,75.62
2022-10-17T22:56:59.511Z,74.44
2022-10-17T23:00:02.421Z,75.48
2022-10-17T23:03:05.154Z,77.43
2022-10-17T23:06:08.151Z,78.53
2022-10-17T23:09:13.688Z,77.44
2022-10-17T23:12:16.675Z,78.28
2022-10-17T23:15:19.882Z,78.73
2022-10-17T23:18:24.426Z,79.79
2022-10-17T23:21:28.480Z,81.03
2022-10-17T23:24:31.583Z,79.91
2022-10-17T23:27:35.657Z,79.37
2022-10-17T23:30:40.076Z,80.89
2022-10-17T23:33:45.059Z,82.16
2022-10-17T23:36:48.093Z,82.20
2022-10-17T23:39:50.774Z,81.23
2022-10-17T23:42:53.659Z,80.05
2022-10-17T23:45:56.077Z,79.33
2022-10-17T23:48:59.209Z,78.68
2022-10-17T23:52:02.536Z,80.96
2022-10-17T23:55:05.987Z,80.12
2022-10-17T23:58:08.597Z,79.98
